Francisco Morato, Brazil
Current Conditions -  °F | °C
As of 7:00 AM on Tuesday 21 Oct 2014 (Local Time) from SBGR Reporting Station
Broken Clouds Broken Clouds  
Wind Chill: 61°   Ceiling: 1300
Heat Index: 61°   Visibility: 6mi
Dew Point: 57°   Wind: 5mph
Humidity: 88%   Direction: 140°SE
Pressure: 30.15"   Gusts: NA
Location:  23.27°S, 46.75°W
Report Text: SBGR 210900Z 14004KT 9999 BKN013 16/14 Q1021
Loading
Personal Weather Stations






























Interactive Weather Map
Tropical Storm Tracking
New forecast layout! Learn more

10-Day Weather Forecast

Advertisements
Track Severe Weather on mobile